CheckWX is a tool to help pilots better visualize weather data.  It is not intended as a substitute for an official pre-flight weather briefing.

04:15:51 UTC

KPIA METAR
General Downing - Peoria International Airport
Peoria, Illinois, USA
Current

22 mins ago

KPIA 290354Z 35003KT 10SM OVC006 M04/M04 A3015 RMK AO2 SLP217 T10391044
Observed
Jan-29 @ 03:54 UTC
Wind
  • 350° at 3 KTS
Visibility
10 SM
Flight Rules
IFR
Cloud Levels
  • Overcast at 600' AGL
Temperature
-4°C / 25°F
Dewpoint
-4°C / 25°F
Humidity
100%
Altimeter
30.15" Hg
Pressure
1021.02 hPa
Previous

1 hour ago

KPIA 290254Z 33004KT 10SM OVC006 M04/M04 A3015 RMK AO2 SLP218 T10391044 51008
Observed
Jan-29 @ 02:54 UTC
Wind
  • 330° at 4 KTS
Visibility
10 SM
Flight Rules
IFR
Cloud Levels
  • Overcast at 600' AGL
Temperature
-4°C / 25°F
Dewpoint
-4°C / 25°F
Humidity
100%
Altimeter
30.15" Hg
Pressure
1021.02 hPa
Previous

2 hours ago

KPIA 290154Z 02003KT 10SM OVC006 M04/M04 A3014 RMK AO2 SLP216 T10391044
Observed
Jan-29 @ 01:54 UTC
Wind
  • 020° at 3 KTS
Visibility
10 SM
Flight Rules
IFR
Cloud Levels
  • Overcast at 600' AGL
Temperature
-4°C / 25°F
Dewpoint
-4°C / 25°F
Humidity
100%
Altimeter
30.14" Hg
Pressure
1020.62 hPa